createdAt,value
2023-02-15T00:01:07.365Z,-0.40
2023-02-15T00:04:29.298Z,-0.40
2023-02-15T00:07:51.279Z,-0.40
2023-02-15T00:11:15.520Z,-0.40
2023-02-15T00:14:39.321Z,-0.50
2023-02-15T00:18:01.326Z,-0.50
2023-02-15T00:21:23.366Z,-0.60
2023-02-15T00:24:45.364Z,-0.60
2023-02-15T00:28:08.940Z,-0.60
2023-02-15T00:31:31.519Z,-0.70
2023-02-15T00:34:53.533Z,-0.70
2023-02-15T00:38:15.540Z,-0.70
2023-02-15T00:41:37.707Z,-0.80
2023-02-15T00:45:01.005Z,-0.80
2023-02-15T00:48:23.455Z,-0.80
2023-02-15T00:51:45.502Z,-0.90
2023-02-15T00:55:07.901Z,-0.90
2023-02-15T00:58:29.972Z,-0.90
2023-02-15T01:01:53.172Z,-1.00
2023-02-15T01:05:14.962Z,-1.00
2023-02-15T01:08:36.899Z,-1.00
2023-02-15T01:11:58.843Z,-0.90
2023-02-15T01:15:20.978Z,-0.90
2023-02-15T01:18:44.382Z,-0.80
2023-02-15T01:22:06.499Z,-0.80
2023-02-15T01:25:28.458Z,-0.80
2023-02-15T01:28:50.374Z,-0.70
2023-02-15T01:32:12.062Z,-0.80
2023-02-15T01:35:37.402Z,-0.80
2023-02-15T01:38:59.004Z,-0.70
2023-02-15T01:42:22.111Z,-0.80
2023-02-15T01:45:43.815Z,-0.80
2023-02-15T01:49:08.707Z,-0.90
2023-02-15T01:52:31.734Z,-0.90
2023-02-15T01:55:54.855Z,-1.00
2023-02-15T01:59:19.447Z,-1.10
2023-02-15T02:02:41.368Z,-1.10
2023-02-15T02:06:03.251Z,-1.10
2023-02-15T02:09:26.403Z,-1.10
2023-02-15T02:12:48.507Z,-1.20
2023-02-15T02:16:12.350Z,-1.10
2023-02-15T02:19:46.823Z,-1.10
2023-02-15T02:23:29.116Z,-1.20
2023-02-15T02:27:09.024Z,-1.20
2023-02-15T02:30:54.342Z,-1.20
2023-02-15T02:34:18.335Z,-1.30
2023-02-15T02:37:46.861Z,-1.30
2023-02-15T02:41:13.777Z,-1.40
2023-02-15T02:44:39.778Z,-1.40
2023-02-15T02:48:04.822Z,-1.40
2023-02-15T02:51:27.816Z,-1.50
2023-02-15T02:54:49.490Z,-1.50
2023-02-15T02:58:13.109Z,-1.50
2023-02-15T03:01:37.687Z,-1.50
2023-02-15T03:05:01.505Z,-1.40
2023-02-15T03:08:25.389Z,-1.40
2023-02-15T03:11:47.300Z,-1.40
2023-02-15T03:15:11.217Z,-1.40
2023-02-15T03:18:35.456Z,-1.40
2023-02-15T03:21:58.957Z,-1.40
2023-02-15T03:25:23.342Z,-1.50
2023-02-15T03:28:46.730Z,-1.40
2023-02-15T03:32:10.865Z,-1.50
2023-02-15T03:35:34.446Z,-1.50
2023-02-15T03:38:58.735Z,-1.50
2023-02-15T03:42:26.294Z,-1.50
2023-02-15T03:45:48.972Z,-1.50
2023-02-15T03:49:12.023Z,-1.50
2023-02-15T03:52:34.632Z,-1.50
2023-02-15T03:55:56.470Z,-1.50
2023-02-15T03:59:19.425Z,-1.60
2023-02-15T04:02:45.197Z,-1.60
2023-02-15T04:06:07.170Z,-1.70
2023-02-15T04:09:28.845Z,-1.70
2023-02-15T04:12:50.439Z,-1.80
2023-02-15T04:16:13.496Z,-1.80
2023-02-15T04:19:35.110Z,-1.90
2023-02-15T04:22:56.694Z,-1.90
2023-02-15T04:26:18.281Z,-1.90
2023-02-15T04:29:39.879Z,-1.90
2023-02-15T04:33:02.884Z,-2.00
2023-02-15T04:36:24.501Z,-2.00
2023-02-15T04:39:46.086Z,-2.00
2023-02-15T04:43:07.725Z,-2.00
2023-02-15T04:46:29.393Z,-2.10
2023-02-15T04:49:52.353Z,-2.10
2023-02-15T04:53:13.955Z,-2.10
2023-02-15T04:56:35.540Z,-2.10
2023-02-15T04:59:58.874Z,-2.10
2023-02-15T05:03:20.470Z,-2.20
2023-02-15T05:06:43.473Z,-2.20
2023-02-15T05:10:05.556Z,-2.20
2023-02-15T05:13:27.131Z,-2.20
2023-02-15T05:16:48.735Z,-2.20
2023-02-15T05:20:10.838Z,-2.20
2023-02-15T05:23:33.784Z,-2.20
2023-02-15T05:26:55.395Z,-2.30
2023-02-15T05:30:17.056Z,-2.30
2023-02-15T05:33:39.208Z,-2.30
2023-02-15T05:37:00.827Z,-2.30
2023-02-15T05:40:23.811Z,-2.40
2023-02-15T05:43:45.394Z,-2.40
2023-02-15T05:47:06.984Z,-2.40
2023-02-15T05:50:28.585Z,-2.50
2023-02-15T05:53:50.155Z,-2.50
2023-02-15T05:57:13.113Z,-2.50
2023-02-15T06:00:36.762Z,-2.50
2023-02-15T06:03:59.624Z,-2.50
2023-02-15T06:07:21.285Z,-2.50
2023-02-15T06:10:42.899Z,-2.50
2023-02-15T06:14:05.872Z,-2.50
2023-02-15T06:17:27.690Z,-2.60
2023-02-15T06:20:49.852Z,-2.60
2023-02-15T06:24:11.454Z,-2.60
2023-02-15T06:27:33.027Z,-2.50
2023-02-15T06:30:56.099Z,-2.50
2023-02-15T06:34:17.844Z,-2.50
2023-02-15T06:37:39.684Z,-2.40
2023-02-15T06:41:01.425Z,-2.40
2023-02-15T06:44:23.005Z,-2.40
2023-02-15T06:47:45.933Z,-2.40
2023-02-15T06:51:07.671Z,-2.40
2023-02-15T06:54:29.326Z,-2.40
2023-02-15T06:57:51.196Z,-2.40
2023-02-15T07:01:12.851Z,-2.30
2023-02-15T07:04:36.031Z,-2.20
2023-02-15T07:07:57.720Z,-2.10
2023-02-15T07:11:19.505Z,-2.10
2023-02-15T07:14:41.134Z,-2.00
2023-02-15T07:18:02.724Z,-2.00
2023-02-15T07:21:25.668Z,-1.90
2023-02-15T07:24:47.273Z,-1.90
2023-02-15T07:28:08.844Z,-1.80
2023-02-15T07:31:30.436Z,-1.70
2023-02-15T07:34:52.024Z,-1.60
2023-02-15T07:38:14.966Z,-1.50
2023-02-15T07:41:36.556Z,-1.50
2023-02-15T07:44:58.141Z,-1.40
2023-02-15T07:48:19.786Z,-1.30
2023-02-15T07:51:41.401Z,-1.20
2023-02-15T07:55:04.465Z,-1.10
2023-02-15T07:58:26.103Z,-1.00
2023-02-15T08:01:47.682Z,-1.00
2023-02-15T08:05:09.322Z,-1.00
2023-02-15T08:08:31.181Z,-0.90
2023-02-15T08:11:54.142Z,-0.60
2023-02-15T08:15:15.741Z,-0.20
2023-02-15T08:18:37.308Z,0.60
2023-02-15T08:21:59.818Z,1.90
2023-02-15T08:25:21.411Z,3.20
2023-02-15T08:28:44.477Z,4.30
2023-02-15T08:32:07.204Z,4.80
2023-02-15T08:35:28.888Z,5.50
2023-02-15T08:38:50.524Z,6.00
2023-02-15T08:42:12.092Z,6.40
2023-02-15T08:45:35.063Z,6.70
2023-02-15T08:48:57.171Z,7.00
2023-02-15T08:52:18.864Z,7.20
2023-02-15T08:55:40.444Z,7.60
2023-02-15T08:59:02.100Z,7.80
2023-02-15T09:02:25.118Z,8.20
2023-02-15T09:05:46.923Z,8.40
2023-02-15T09:09:08.779Z,8.80
2023-02-15T09:12:30.357Z,9.00
2023-02-15T09:15:51.935Z,9.00
2023-02-15T09:19:15.212Z,9.20
2023-02-15T09:22:36.859Z,9.40
2023-02-15T09:26:02.379Z,9.20
2023-02-15T09:29:23.966Z,9.30
2023-02-15T09:32:45.632Z,9.30
2023-02-15T09:36:14.784Z,8.90
2023-02-15T09:39:38.551Z,8.10
2023-02-15T09:43:14.809Z,7.00
2023-02-15T09:46:43.596Z,6.40
2023-02-15T09:50:08.715Z,5.70
2023-02-15T09:53:38.259Z,5.10
2023-02-15T09:57:01.672Z,4.70
2023-02-15T10:00:29.048Z,4.40
2023-02-15T10:03:56.266Z,4.20
2023-02-15T10:07:23.794Z,4.10
2023-02-15T10:10:54.286Z,4.00
2023-02-15T10:14:22.236Z,4.00
2023-02-15T10:17:51.499Z,4.00
2023-02-15T10:21:18.837Z,3.90
2023-02-15T10:24:48.703Z,4.00
2023-02-15T10:28:16.642Z,4.20
2023-02-15T10:31:43.909Z,4.30
2023-02-15T10:35:11.867Z,4.50
2023-02-15T10:38:37.023Z,4.60
2023-02-15T10:42:00.330Z,4.80
2023-02-15T10:45:28.822Z,4.90
2023-02-15T10:49:04.151Z,5.00
2023-02-15T10:52:31.180Z,5.20
2023-02-15T10:55:56.644Z,5.40
2023-02-15T10:59:30.008Z,5.50
2023-02-15T11:03:00.892Z,5.60
2023-02-15T11:06:23.718Z,5.70
2023-02-15T11:09:47.463Z,5.90
2023-02-15T11:13:10.508Z,6.00
2023-02-15T11:16:33.895Z,6.00
2023-02-15T11:19:59.728Z,6.10
2023-02-15T11:23:21.769Z,6.20
2023-02-15T11:26:44.211Z,6.30
2023-02-15T11:30:07.075Z,6.40
2023-02-15T11:33:30.472Z,6.50
2023-02-15T11:36:54.608Z,6.60
2023-02-15T11:40:20.116Z,6.70
2023-02-15T11:43:44.887Z,6.90
2023-02-15T11:47:09.399Z,6.90
2023-02-15T11:50:33.023Z,7.10
2023-02-15T11:53:57.066Z,7.20
2023-02-15T11:57:22.316Z,7.30
2023-02-15T12:00:46.392Z,7.40
2023-02-15T12:04:14.786Z,7.50
2023-02-15T12:07:39.086Z,7.60
2023-02-15T12:11:05.097Z,7.80
2023-02-15T12:14:26.803Z,7.90
2023-02-15T12:17:50.021Z,8.10
2023-02-15T12:21:12.920Z,8.20
2023-02-15T12:24:37.246Z,8.30
2023-02-15T12:28:00.240Z,8.40
2023-02-15T12:31:23.700Z,8.40
2023-02-15T12:34:46.090Z,8.50
2023-02-15T12:38:22.544Z,8.60
2023-02-15T12:41:45.521Z,8.60
2023-02-15T12:45:21.788Z,8.70
2023-02-15T12:48:43.409Z,8.90
2023-02-15T12:52:05.990Z,9.00
2023-02-15T12:55:28.070Z,9.10
2023-02-15T12:59:04.714Z,9.20
2023-02-15T13:02:29.362Z,9.30
2023-02-15T13:05:52.583Z,9.40
2023-02-15T13:09:15.807Z,9.50
2023-02-15T13:12:37.409Z,9.60
2023-02-15T13:15:59.707Z,9.70
2023-02-15T13:19:27.657Z,9.80
2023-02-15T13:22:49.779Z,9.90
2023-02-15T13:26:14.142Z,10.00
2023-02-15T13:29:37.228Z,10.00
2023-02-15T13:33:01.237Z,10.10
2023-02-15T13:36:28.881Z,10.20
2023-02-15T13:39:52.171Z,10.30
2023-02-15T13:43:21.332Z,10.40
2023-02-15T13:47:02.777Z,10.40
2023-02-15T13:50:42.071Z,10.40
2023-02-15T13:54:20.599Z,10.40
2023-02-15T13:57:51.215Z,10.50
2023-02-15T14:01:18.524Z,10.50
2023-02-15T14:04:53.952Z,10.50
2023-02-15T14:08:19.573Z,10.50
2023-02-15T14:11:45.454Z,10.60
2023-02-15T14:15:12.540Z,10.70
2023-02-15T14:18:36.704Z,10.70
2023-02-15T14:22:00.303Z,10.70
2023-02-15T14:25:26.160Z,10.80
2023-02-15T14:28:51.921Z,10.80
2023-02-15T14:32:16.209Z,10.80
2023-02-15T14:35:37.921Z,10.80
2023-02-15T14:39:06.233Z,10.80
2023-02-15T14:42:32.110Z,10.90
2023-02-15T14:45:55.976Z,10.90
2023-02-15T14:49:18.609Z,10.90
2023-02-15T14:53:05.265Z,10.90
2023-02-15T14:56:27.174Z,10.90
2023-02-15T14:59:53.780Z,10.90
2023-02-15T15:03:22.452Z,10.90
2023-02-15T15:06:44.946Z,10.80
2023-02-15T15:10:07.754Z,10.80
2023-02-15T15:13:39.964Z,10.80
2023-02-15T15:17:02.899Z,10.70
2023-02-15T15:20:43.223Z,10.60
2023-02-15T15:24:06.686Z,10.60
2023-02-15T15:27:48.442Z,10.60
2023-02-15T15:31:16.562Z,10.60
2023-02-15T15:34:59.132Z,10.50
2023-02-15T15:38:30.607Z,10.50
2023-02-15T15:41:55.482Z,10.40
2023-02-15T15:45:25.696Z,10.30
2023-02-15T15:48:47.292Z,10.30
2023-02-15T15:52:13.274Z,10.30
2023-02-15T15:55:36.364Z,10.10
2023-02-15T15:58:59.143Z,10.00
2023-02-15T16:02:21.127Z,9.80
2023-02-15T16:05:42.755Z,9.60
2023-02-15T16:09:12.082Z,9.50
2023-02-15T16:12:36.189Z,9.40
2023-02-15T16:15:57.787Z,9.40
2023-02-15T16:19:20.870Z,9.20
2023-02-15T16:22:42.515Z,8.90
2023-02-15T16:26:08.614Z,8.70
2023-02-15T16:29:32.671Z,8.40
2023-02-15T16:32:55.190Z,8.20
2023-02-15T16:36:21.488Z,7.90
2023-02-15T16:39:43.444Z,7.60
2023-02-15T16:43:06.644Z,7.30
2023-02-15T16:46:31.124Z,7.00
2023-02-15T16:49:54.706Z,6.80
2023-02-15T16:53:19.685Z,6.50
2023-02-15T16:56:43.894Z,6.30
2023-02-15T17:00:06.892Z,6.10
2023-02-15T17:03:30.204Z,5.90
2023-02-15T17:06:58.394Z,5.80
2023-02-15T17:10:26.932Z,5.70
2023-02-15T17:14:07.187Z,5.60
2023-02-15T17:17:32.088Z,5.40
2023-02-15T17:20:56.486Z,5.20
2023-02-15T17:24:20.540Z,5.10
2023-02-15T17:27:42.204Z,5.00
2023-02-15T17:31:07.188Z,5.00
2023-02-15T17:34:45.855Z,4.90
2023-02-15T17:38:17.931Z,4.80
2023-02-15T17:41:39.565Z,4.70
2023-02-15T17:45:01.163Z,4.70
2023-02-15T17:48:25.056Z,4.50
2023-02-15T17:51:46.644Z,4.40
2023-02-15T17:55:14.173Z,4.30
2023-02-15T17:58:35.941Z,4.30
2023-02-15T18:01:57.593Z,4.20
2023-02-15T18:05:19.208Z,4.20
2023-02-15T18:08:40.798Z,4.10
2023-02-15T18:12:15.224Z,4.00
2023-02-15T18:15:41.582Z,4.00
2023-02-15T18:19:03.916Z,3.90
2023-02-15T18:22:28.106Z,3.80
2023-02-15T18:25:49.695Z,3.80
2023-02-15T18:29:12.815Z,3.70
2023-02-15T18:32:39.282Z,3.70
2023-02-15T18:36:01.661Z,3.60
2023-02-15T18:39:25.164Z,3.60
2023-02-15T18:42:46.813Z,3.70
2023-02-15T18:46:09.977Z,3.60
2023-02-15T18:49:31.616Z,3.60
2023-02-15T18:52:53.213Z,3.60
2023-02-15T18:56:15.991Z,3.50
2023-02-15T18:59:37.598Z,3.60
2023-02-15T19:03:01.035Z,3.70
2023-02-15T19:06:22.817Z,3.70
2023-02-15T19:09:47.202Z,3.70
2023-02-15T19:13:09.692Z,3.60
2023-02-15T19:16:32.546Z,3.60
2023-02-15T19:19:55.628Z,3.50
2023-02-15T19:23:18.982Z,3.40
2023-02-15T19:26:45.582Z,3.40
2023-02-15T19:30:13.393Z,3.40
2023-02-15T19:33:35.048Z,3.40
2023-02-15T19:36:58.032Z,3.50
2023-02-15T19:40:21.463Z,3.50
2023-02-15T19:43:48.683Z,3.70
2023-02-15T19:47:13.339Z,3.70
2023-02-15T19:50:36.315Z,3.80
2023-02-15T19:54:01.417Z,3.90
2023-02-15T19:57:28.652Z,3.80
2023-02-15T20:00:51.221Z,3.80
2023-02-15T20:04:14.051Z,3.60
2023-02-15T20:07:35.888Z,3.40
2023-02-15T20:10:58.881Z,3.30
2023-02-15T20:14:20.581Z,3.20
2023-02-15T20:17:42.245Z,3.00
2023-02-15T20:21:04.409Z,2.80
2023-02-15T20:24:28.559Z,2.70
2023-02-15T20:27:51.712Z,2.60
2023-02-15T20:31:14.969Z,2.50
2023-02-15T20:34:37.194Z,2.40
2023-02-15T20:37:59.251Z,2.40
2023-02-15T20:41:21.557Z,2.50
2023-02-15T20:44:44.517Z,2.60
2023-02-15T20:48:06.201Z,2.50
2023-02-15T20:51:28.085Z,2.50
2023-02-15T20:54:49.675Z,2.40
2023-02-15T20:58:18.459Z,2.30
2023-02-15T21:01:41.517Z,2.30
2023-02-15T21:05:03.192Z,2.20
2023-02-15T21:08:25.209Z,2.20
2023-02-15T21:11:47.575Z,2.10
2023-02-15T21:15:25.006Z,2.10
2023-02-15T21:18:47.940Z,2.10
2023-02-15T21:22:11.592Z,2.00
2023-02-15T21:25:34.709Z,2.00
2023-02-15T21:28:56.325Z,2.00
2023-02-15T21:32:18.016Z,2.00
2023-02-15T21:35:41.338Z,1.90
2023-02-15T21:39:03.026Z,1.80
2023-02-15T21:42:24.727Z,1.80
2023-02-15T21:45:47.703Z,1.70
2023-02-15T21:49:09.479Z,1.70
2023-02-15T21:52:32.487Z,1.70
2023-02-15T21:55:55.730Z,1.70
2023-02-15T21:59:18.072Z,1.70
2023-02-15T22:02:40.578Z,1.70
2023-02-15T22:06:02.757Z,1.70
2023-02-15T22:09:27.118Z,1.60
2023-02-15T22:12:49.385Z,1.50
2023-02-15T22:16:14.514Z,1.40
2023-02-15T22:19:36.162Z,1.50
2023-02-15T22:22:57.823Z,1.40
2023-02-15T22:26:22.464Z,1.40
2023-02-15T22:29:44.060Z,1.40
2023-02-15T22:33:05.751Z,1.40
2023-02-15T22:36:28.611Z,1.30
2023-02-15T22:39:50.192Z,1.30
2023-02-15T22:43:19.586Z,1.20
2023-02-15T22:46:41.247Z,1.20
2023-02-15T22:50:02.854Z,1.20
2023-02-15T22:53:24.541Z,1.30
2023-02-15T22:56:47.188Z,1.40
2023-02-15T23:00:14.928Z,1.70
2023-02-15T23:03:36.559Z,1.80
2023-02-15T23:06:58.233Z,1.90
2023-02-15T23:10:21.026Z,1.90
2023-02-15T23:13:42.838Z,1.90
2023-02-15T23:17:05.787Z,2.00
2023-02-15T23:20:27.413Z,2.00
2023-02-15T23:23:50.117Z,2.00
2023-02-15T23:27:15.500Z,2.00
2023-02-15T23:30:37.101Z,2.00
2023-02-15T23:34:01.248Z,1.90
2023-02-15T23:37:22.909Z,1.80
2023-02-15T23:40:45.282Z,1.80
2023-02-15T23:44:09.543Z,1.80
2023-02-15T23:47:31.883Z,1.80
2023-02-15T23:50:54.877Z,1.60
2023-02-15T23:54:17.985Z,1.70
2023-02-15T23:57:39.875Z,2.10
